sensor_id;sensor_type;location;lat;lon;timestamp;P1;durP1;ratioP1;P2;durP2;ratioP2
59512;SDS011;45330;51.634;5.562;2022-09-09T00:04:31;10.55;;;3.78;;
59512;SDS011;45330;51.634;5.562;2022-09-09T00:07:07;7.93;;;3.58;;
59512;SDS011;45330;51.634;5.562;2022-09-09T00:09:40;9.38;;;3.95;;
59512;SDS011;45330;51.634;5.562;2022-09-09T00:12:47;11.52;;;3.63;;
59512;SDS011;45330;51.634;5.562;2022-09-09T00:15:16;9.98;;;3.88;;
59512;SDS011;45330;51.634;5.562;2022-09-09T00:23:34;10.45;;;3.85;;
59512;SDS011;45330;51.634;5.562;2022-09-09T00:28:52;10.77;;;4.00;;
59512;SDS011;45330;51.634;5.562;2022-09-09T00:31:26;11.75;;;4.13;;
59512;SDS011;45330;51.634;5.562;2022-09-09T00:33:55;10.65;;;4.38;;
59512;SDS011;45330;51.634;5.562;2022-09-09T00:36:42;12.18;;;4.45;;
59512;SDS011;45330;51.634;5.562;2022-09-09T00:39:16;11.73;;;4.07;;
59512;SDS011;45330;51.634;5.562;2022-09-09T00:44:38;10.75;;;4.20;;
59512;SDS011;45330;51.634;5.562;2022-09-09T00:50:05;12.60;;;4.30;;
59512;SDS011;45330;51.634;5.562;2022-09-09T00:55:48;11.13;;;4.18;;
59512;SDS011;45330;51.634;5.562;2022-09-09T00:58:21;12.32;;;4.30;;
59512;SDS011;45330;51.634;5.562;2022-09-09T01:00:49;15.50;;;4.28;;
59512;SDS011;45330;51.634;5.562;2022-09-09T01:16:44;12.63;;;4.57;;
59512;SDS011;45330;51.634;5.562;2022-09-09T01:19:10;13.65;;;4.50;;
59512;SDS011;45330;51.634;5.562;2022-09-09T01:22:06;11.18;;;4.32;;
59512;SDS011;45330;51.634;5.562;2022-09-09T01:27:53;11.60;;;4.03;;
59512;SDS011;45330;51.634;5.562;2022-09-09T01:30:22;11.60;;;4.32;;
59512;SDS011;45330;51.634;5.562;2022-09-09T01:32:50;11.45;;;4.25;;
59512;SDS011;45330;51.634;5.562;2022-09-09T01:38:10;10.55;;;3.90;;
59512;SDS011;45330;51.634;5.562;2022-09-09T01:40:35;12.10;;;3.97;;
59512;SDS011;45330;51.634;5.562;2022-09-09T01:43:01;10.55;;;4.22;;
59512;SDS011;45330;51.634;5.562;2022-09-09T01:45:28;12.07;;;4.13;;
59512;SDS011;45330;51.634;5.562;2022-09-09T01:47:53;11.45;;;4.32;;
59512;SDS011;45330;51.634;5.562;2022-09-09T01:50:19;10.68;;;3.95;;
59512;SDS011;45330;51.634;5.562;2022-09-09T01:52:46;12.93;;;4.00;;
59512;SDS011;45330;51.634;5.562;2022-09-09T01:55:18;10.95;;;4.07;;
59512;SDS011;45330;51.634;5.562;2022-09-09T01:58:01;12.40;;;4.10;;
59512;SDS011;45330;51.634;5.562;2022-09-09T02:00:28;13.43;;;4.43;;
59512;SDS011;45330;51.634;5.562;2022-09-09T02:03:13;13.65;;;4.00;;
59512;SDS011;45330;51.634;5.562;2022-09-09T02:05:57;15.52;;;4.47;;
59512;SDS011;45330;51.634;5.562;2022-09-09T02:13:35;11.93;;;4.22;;
59512;SDS011;45330;51.634;5.562;2022-09-09T02:18:33;14.05;;;4.30;;
59512;SDS011;45330;51.634;5.562;2022-09-09T02:21:11;15.73;;;4.47;;
59512;SDS011;45330;51.634;5.562;2022-09-09T02:23:39;13.52;;;4.40;;
59512;SDS011;45330;51.634;5.562;2022-09-09T02:26:07;17.70;;;4.57;;
59512;SDS011;45330;51.634;5.562;2022-09-09T02:31:05;9.68;;;3.85;;
59512;SDS011;45330;51.634;5.562;2022-09-09T02:33:33;15.50;;;4.63;;
59512;SDS011;45330;51.634;5.562;2022-09-09T02:38:29;17.13;;;5.20;;
59512;SDS011;45330;51.634;5.562;2022-09-09T02:41:00;15.02;;;4.75;;
59512;SDS011;45330;51.634;5.562;2022-09-09T02:43:30;15.45;;;4.80;;
59512;SDS011;45330;51.634;5.562;2022-09-09T02:46:03;13.80;;;4.60;;
59512;SDS011;45330;51.634;5.562;2022-09-09T02:49:03;16.08;;;5.28;;
59512;SDS011;45330;51.634;5.562;2022-09-09T02:51:55;13.93;;;4.63;;
59512;SDS011;45330;51.634;5.562;2022-09-09T02:54:31;14.82;;;4.47;;
59512;SDS011;45330;51.634;5.562;2022-09-09T02:57:06;17.20;;;4.88;;
59512;SDS011;45330;51.634;5.562;2022-09-09T02:59:36;16.13;;;5.10;;
59512;SDS011;45330;51.634;5.562;2022-09-09T03:02:03;13.13;;;5.18;;
59512;SDS011;45330;51.634;5.562;2022-09-09T03:04:29;15.02;;;5.20;;
59512;SDS011;45330;51.634;5.562;2022-09-09T03:06:56;15.65;;;5.00;;
59512;SDS011;45330;51.634;5.562;2022-09-09T03:09:22;17.33;;;5.38;;
59512;SDS011;45330;51.634;5.562;2022-09-09T03:11:47;20.58;;;5.78;;
59512;SDS011;45330;51.634;5.562;2022-09-09T03:14:14;16.20;;;5.97;;
59512;SDS011;45330;51.634;5.562;2022-09-09T03:16:40;19.38;;;5.88;;
59512;SDS011;45330;51.634;5.562;2022-09-09T03:19:07;17.83;;;5.70;;
59512;SDS011;45330;51.634;5.562;2022-09-09T03:21:33;22.90;;;6.38;;
59512;SDS011;45330;51.634;5.562;2022-09-09T03:23:58;16.05;;;5.45;;
59512;SDS011;45330;51.634;5.562;2022-09-09T03:26:23;19.13;;;5.63;;
59512;SDS011;45330;51.634;5.562;2022-09-09T03:28:49;17.92;;;5.43;;
59512;SDS011;45330;51.634;5.562;2022-09-09T03:31:17;19.75;;;5.63;;
59512;SDS011;45330;51.634;5.562;2022-09-09T03:33:43;17.77;;;5.57;;
59512;SDS011;45330;51.634;5.562;2022-09-09T03:36:08;18.13;;;5.72;;
59512;SDS011;45330;51.634;5.562;2022-09-09T03:38:34;20.02;;;5.80;;
59512;SDS011;45330;51.634;5.562;2022-09-09T03:40:59;18.20;;;5.38;;
59512;SDS011;45330;51.634;5.562;2022-09-09T03:43:26;16.85;;;5.50;;
59512;SDS011;45330;51.634;5.562;2022-09-09T03:45:52;19.00;;;5.50;;
59512;SDS011;45330;51.634;5.562;2022-09-09T03:48:18;17.77;;;5.50;;
59512;SDS011;45330;51.634;5.562;2022-09-09T03:50:47;16.05;;;5.30;;
59512;SDS011;45330;51.634;5.562;2022-09-09T03:53:14;20.13;;;5.80;;
59512;SDS011;45330;51.634;5.562;2022-09-09T03:55:45;17.90;;;5.30;;
59512;SDS011;45330;51.634;5.562;2022-09-09T03:58:15;16.20;;;5.15;;
59512;SDS011;45330;51.634;5.562;2022-09-09T04:00:41;16.95;;;4.93;;
59512;SDS011;45330;51.634;5.562;2022-09-09T04:03:09;17.58;;;5.28;;
59512;SDS011;45330;51.634;5.562;2022-09-09T04:05:35;16.05;;;5.20;;
59512;SDS011;45330;51.634;5.562;2022-09-09T04:08:04;15.73;;;5.10;;
59512;SDS011;45330;51.634;5.562;2022-09-09T04:10:34;14.98;;;5.18;;
59512;SDS011;45330;51.634;5.562;2022-09-09T04:13:02;16.02;;;5.35;;
59512;SDS011;45330;51.634;5.562;2022-09-09T04:15:28;17.05;;;5.30;;
59512;SDS011;45330;51.634;5.562;2022-09-09T04:17:54;16.92;;;5.38;;
59512;SDS011;45330;51.634;5.562;2022-09-09T04:20:19;18.25;;;5.13;;
59512;SDS011;45330;51.634;5.562;2022-09-09T04:22:45;17.40;;;5.18;;
59512;SDS011;45330;51.634;5.562;2022-09-09T04:25:10;15.75;;;5.03;;
59512;SDS011;45330;51.634;5.562;2022-09-09T04:27:35;17.05;;;4.97;;
59512;SDS011;45330;51.634;5.562;2022-09-09T04:30:01;18.55;;;5.80;;
59512;SDS011;45330;51.634;5.562;2022-09-09T04:32:26;16.73;;;5.47;;
59512;SDS011;45330;51.634;5.562;2022-09-09T04:34:52;20.02;;;5.65;;
59512;SDS011;45330;51.634;5.562;2022-09-09T04:37:17;18.42;;;5.45;;
59512;SDS011;45330;51.634;5.562;2022-09-09T04:39:43;16.50;;;5.70;;
59512;SDS011;45330;51.634;5.562;2022-09-09T04:42:08;16.67;;;5.18;;
59512;SDS011;45330;51.634;5.562;2022-09-09T04:44:33;17.50;;;5.57;;
59512;SDS011;45330;51.634;5.562;2022-09-09T04:46:59;18.80;;;5.57;;
59512;SDS011;45330;51.634;5.562;2022-09-09T04:49:24;19.00;;;6.10;;
59512;SDS011;45330;51.634;5.562;2022-09-09T04:51:50;16.92;;;5.43;;
59512;SDS011;45330;51.634;5.562;2022-09-09T04:54:16;17.73;;;5.53;;
59512;SDS011;45330;51.634;5.562;2022-09-09T04:56:42;16.55;;;5.63;;
59512;SDS011;45330;51.634;5.562;2022-09-09T04:59:08;18.30;;;5.63;;
59512;SDS011;45330;51.634;5.562;2022-09-09T05:01:34;19.70;;;5.80;;
59512;SDS011;45330;51.634;5.562;2022-09-09T05:04:01;19.05;;;5.80;;
59512;SDS011;45330;51.634;5.562;2022-09-09T05:06:27;17.30;;;4.78;;
59512;SDS011;45330;51.634;5.562;2022-09-09T05:08:56;19.55;;;5.43;;
59512;SDS011;45330;51.634;5.562;2022-09-09T05:11:24;15.07;;;5.20;;
59512;SDS011;45330;51.634;5.562;2022-09-09T05:13:51;16.88;;;5.50;;
59512;SDS011;45330;51.634;5.562;2022-09-09T05:16:17;16.75;;;5.55;;
59512;SDS011;45330;51.634;5.562;2022-09-09T05:18:43;19.75;;;5.47;;
59512;SDS011;45330;51.634;5.562;2022-09-09T05:21:13;20.75;;;5.85;;
59512;SDS011;45330;51.634;5.562;2022-09-09T05:23:39;22.60;;;6.37;;
59512;SDS011;45330;51.634;5.562;2022-09-09T05:26:05;19.70;;;5.28;;
59512;SDS011;45330;51.634;5.562;2022-09-09T05:28:34;21.30;;;5.90;;
59512;SDS011;45330;51.634;5.562;2022-09-09T05:31:04;19.75;;;5.70;;
59512;SDS011;45330;51.634;5.562;2022-09-09T05:33:33;18.92;;;5.45;;
59512;SDS011;45330;51.634;5.562;2022-09-09T05:36:04;18.80;;;5.43;;
59512;SDS011;45330;51.634;5.562;2022-09-09T05:38:33;21.40;;;5.70;;
59512;SDS011;45330;51.634;5.562;2022-09-09T05:40:59;18.58;;;5.63;;
59512;SDS011;45330;51.634;5.562;2022-09-09T05:43:25;17.73;;;5.28;;
59512;SDS011;45330;51.634;5.562;2022-09-09T05:45:58;17.75;;;4.95;;
59512;SDS011;45330;51.634;5.562;2022-09-09T05:48:33;20.20;;;6.30;;
59512;SDS011;45330;51.634;5.562;2022-09-09T05:51:00;19.98;;;5.45;;
59512;SDS011;45330;51.634;5.562;2022-09-09T05:53:27;18.33;;;5.70;;
59512;SDS011;45330;51.634;5.562;2022-09-09T05:56:10;20.33;;;5.80;;
59512;SDS011;45330;51.634;5.562;2022-09-09T05:58:36;18.35;;;5.38;;
59512;SDS011;45330;51.634;5.562;2022-09-09T06:03:27;21.48;;;5.85;;
59512;SDS011;45330;51.634;5.562;2022-09-09T06:05:56;19.67;;;5.85;;
59512;SDS011;45330;51.634;5.562;2022-09-09T06:08:23;21.33;;;5.78;;
59512;SDS011;45330;51.634;5.562;2022-09-09T06:10:49;19.42;;;5.50;;
59512;SDS011;45330;51.634;5.562;2022-09-09T06:13:14;18.10;;;5.03;;
59512;SDS011;45330;51.634;5.562;2022-09-09T06:15:39;21.15;;;5.05;;
59512;SDS011;45330;51.634;5.562;2022-09-09T06:18:14;20.38;;;5.07;;
59512;SDS011;45330;51.634;5.562;2022-09-09T06:20:42;19.02;;;5.10;;
59512;SDS011;45330;51.634;5.562;2022-09-09T06:23:08;19.58;;;5.43;;
59512;SDS011;45330;51.634;5.562;2022-09-09T06:25:33;18.30;;;5.40;;
59512;SDS011;45330;51.634;5.562;2022-09-09T06:27:59;22.45;;;5.20;;
59512;SDS011;45330;51.634;5.562;2022-09-09T06:30:24;17.10;;;5.38;;
59512;SDS011;45330;51.634;5.562;2022-09-09T06:32:49;17.27;;;5.10;;
59512;SDS011;45330;51.634;5.562;2022-09-09T06:35:16;17.73;;;4.72;;
59512;SDS011;45330;51.634;5.562;2022-09-09T06:37:44;16.75;;;4.55;;
59512;SDS011;45330;51.634;5.562;2022-09-09T06:40:10;18.42;;;4.90;;
59512;SDS011;45330;51.634;5.562;2022-09-09T06:42:36;18.23;;;4.97;;
59512;SDS011;45330;51.634;5.562;2022-09-09T06:45:01;16.73;;;4.68;;
59512;SDS011;45330;51.634;5.562;2022-09-09T06:47:27;15.93;;;4.60;;
59512;SDS011;45330;51.634;5.562;2022-09-09T06:49:53;17.60;;;4.25;;
59512;SDS011;45330;51.634;5.562;2022-09-09T06:52:18;16.48;;;4.38;;
59512;SDS011;45330;51.634;5.562;2022-09-09T06:54:44;17.42;;;4.05;;
59512;SDS011;45330;51.634;5.562;2022-09-09T06:57:10;15.30;;;4.15;;
59512;SDS011;45330;51.634;5.562;2022-09-09T06:59:35;16.15;;;4.05;;
59512;SDS011;45330;51.634;5.562;2022-09-09T07:02:01;19.30;;;4.22;;
59512;SDS011;45330;51.634;5.562;2022-09-09T07:04:27;16.23;;;4.00;;
59512;SDS011;45330;51.634;5.562;2022-09-09T07:06:52;18.92;;;4.32;;
59512;SDS011;45330;51.634;5.562;2022-09-09T07:09:17;16.85;;;4.20;;
59512;SDS011;45330;51.634;5.562;2022-09-09T07:11:49;20.75;;;4.28;;
59512;SDS011;45330;51.634;5.562;2022-09-09T07:14:19;17.80;;;4.68;;
59512;SDS011;45330;51.634;5.562;2022-09-09T07:16:45;18.58;;;4.85;;
59512;SDS011;45330;51.634;5.562;2022-09-09T07:19:11;15.68;;;4.03;;
59512;SDS011;45330;51.634;5.562;2022-09-09T07:21:37;18.02;;;4.03;;
59512;SDS011;45330;51.634;5.562;2022-09-09T07:24:05;15.63;;;3.92;;
59512;SDS011;45330;51.634;5.562;2022-09-09T07:26:32;16.40;;;3.92;;
59512;SDS011;45330;51.634;5.562;2022-09-09T07:28:58;16.35;;;3.70;;
59512;SDS011;45330;51.634;5.562;2022-09-09T07:31:25;16.95;;;3.63;;
59512;SDS011;45330;51.634;5.562;2022-09-09T07:33:52;19.65;;;4.10;;
59512;SDS011;45330;51.634;5.562;2022-09-09T07:38:49;17.08;;;3.28;;
59512;SDS011;45330;51.634;5.562;2022-09-09T07:41:27;15.40;;;3.15;;
59512;SDS011;45330;51.634;5.562;2022-09-09T07:43:54;17.67;;;3.35;;
59512;SDS011;45330;51.634;5.562;2022-09-09T07:46:20;10.63;;;3.05;;
59512;SDS011;45330;51.634;5.562;2022-09-09T07:48:49;15.88;;;2.90;;
59512;SDS011;45330;51.634;5.562;2022-09-09T07:51:17;17.05;;;3.50;;
59512;SDS011;45330;51.634;5.562;2022-09-09T07:53:47;15.20;;;3.33;;
59512;SDS011;45330;51.634;5.562;2022-09-09T07:56:15;17.65;;;2.95;;
59512;SDS011;45330;51.634;5.562;2022-09-09T07:58:42;13.40;;;3.08;;
59512;SDS011;45330;51.634;5.562;2022-09-09T08:01:10;16.63;;;3.08;;
59512;SDS011;45330;51.634;5.562;2022-09-09T08:03:41;15.35;;;2.88;;
59512;SDS011;45330;51.634;5.562;2022-09-09T08:06:08;12.35;;;2.70;;
59512;SDS011;45330;51.634;5.562;2022-09-09T08:08:34;16.30;;;2.92;;
59512;SDS011;45330;51.634;5.562;2022-09-09T08:13:30;12.00;;;2.60;;
59512;SDS011;45330;51.634;5.562;2022-09-09T08:16:03;12.77;;;2.60;;
59512;SDS011;45330;51.634;5.562;2022-09-09T08:18:32;12.98;;;2.78;;
59512;SDS011;45330;51.634;5.562;2022-09-09T08:20:58;13.18;;;2.40;;
59512;SDS011;45330;51.634;5.562;2022-09-09T08:25:54;9.88;;;2.42;;
59512;SDS011;45330;51.634;5.562;2022-09-09T08:28:19;16.52;;;3.10;;
59512;SDS011;45330;51.634;5.562;2022-09-09T08:30:45;12.45;;;2.70;;
59512;SDS011;45330;51.634;5.562;2022-09-09T08:33:12;16.58;;;2.88;;
59512;SDS011;45330;51.634;5.562;2022-09-09T08:35:37;11.90;;;2.40;;
59512;SDS011;45330;51.634;5.562;2022-09-09T08:38:03;12.00;;;2.80;;
59512;SDS011;45330;51.634;5.562;2022-09-09T08:40:29;14.20;;;2.92;;
59512;SDS011;45330;51.634;5.562;2022-09-09T08:43:01;18.67;;;3.25;;
59512;SDS011;45330;51.634;5.562;2022-09-09T08:45:31;12.77;;;3.00;;
59512;SDS011;45330;51.634;5.562;2022-09-09T08:50:30;11.48;;;2.75;;
59512;SDS011;45330;51.634;5.562;2022-09-09T08:53:04;17.48;;;3.45;;
59512;SDS011;45330;51.634;5.562;2022-09-09T08:55:48;16.48;;;3.13;;
59512;SDS011;45330;51.634;5.562;2022-09-09T09:03:35;12.73;;;2.55;;
59512;SDS011;45330;51.634;5.562;2022-09-09T09:09:03;11.20;;;2.42;;
59512;SDS011;45330;51.634;5.562;2022-09-09T09:11:34;11.05;;;2.60;;
59512;SDS011;45330;51.634;5.562;2022-09-09T09:14:09;11.82;;;2.33;;
59512;SDS011;45330;51.634;5.562;2022-09-09T09:16:40;13.60;;;3.00;;
59512;SDS011;45330;51.634;5.562;2022-09-09T09:19:17;12.60;;;2.80;;
59512;SDS011;45330;51.634;5.562;2022-09-09T09:21:44;11.00;;;2.40;;
59512;SDS011;45330;51.634;5.562;2022-09-09T09:24:23;11.77;;;2.95;;
59512;SDS011;45330;51.634;5.562;2022-09-09T09:26:49;13.02;;;2.50;;
59512;SDS011;45330;51.634;5.562;2022-09-09T09:29:16;11.30;;;2.85;;
59512;SDS011;45330;51.634;5.562;2022-09-09T09:31:51;15.40;;;2.55;;
59512;SDS011;45330;51.634;5.562;2022-09-09T09:34:19;14.55;;;3.30;;
59512;SDS011;45330;51.634;5.562;2022-09-09T09:39:30;16.00;;;2.88;;
59512;SDS011;45330;51.634;5.562;2022-09-09T09:42:14;13.82;;;2.40;;
59512;SDS011;45330;51.634;5.562;2022-09-09T09:44:42;15.57;;;3.03;;
59512;SDS011;45330;51.634;5.562;2022-09-09T09:47:10;15.27;;;3.10;;
59512;SDS011;45330;51.634;5.562;2022-09-09T09:49:38;11.93;;;2.42;;
59512;SDS011;45330;51.634;5.562;2022-09-09T09:52:05;13.57;;;3.05;;
59512;SDS011;45330;51.634;5.562;2022-09-09T09:54:33;12.85;;;2.75;;
59512;SDS011;45330;51.634;5.562;2022-09-09T09:57:12;16.52;;;3.08;;
59512;SDS011;45330;51.634;5.562;2022-09-09T09:59:40;16.60;;;2.72;;
59512;SDS011;45330;51.634;5.562;2022-09-09T10:02:20;12.10;;;2.40;;
59512;SDS011;45330;51.634;5.562;2022-09-09T10:05:00;8.85;;;2.53;;
59512;SDS011;45330;51.634;5.562;2022-09-09T10:07:30;16.02;;;2.80;;
59512;SDS011;45330;51.634;5.562;2022-09-09T10:09:58;13.80;;;2.88;;
59512;SDS011;45330;51.634;5.562;2022-09-09T10:26:50;9.88;;;2.33;;
59512;SDS011;45330;51.634;5.562;2022-09-09T10:32:31;11.48;;;2.65;;
59512;SDS011;45330;51.634;5.562;2022-09-09T10:38:14;13.18;;;2.75;;
59512;SDS011;45330;51.634;5.562;2022-09-09T10:49:27;14.45;;;2.90;;
59512;SDS011;45330;51.634;5.562;2022-09-09T10:57:45;12.65;;;2.80;;
59512;SDS011;45330;51.634;5.562;2022-09-09T11:00:18;12.20;;;3.03;;
59512;SDS011;45330;51.634;5.562;2022-09-09T11:02:44;13.30;;;3.00;;
59512;SDS011;45330;51.634;5.562;2022-09-09T11:13:15;11.82;;;2.70;;
59512;SDS011;45330;51.634;5.562;2022-09-09T11:15:57;17.98;;;3.00;;
59512;SDS011;45330;51.634;5.562;2022-09-09T11:18:29;12.77;;;2.70;;
59512;SDS011;45330;51.634;5.562;2022-09-09T11:21:02;9.32;;;2.63;;
59512;SDS011;45330;51.634;5.562;2022-09-09T11:23:42;11.05;;;2.45;;
59512;SDS011;45330;51.634;5.562;2022-09-09T11:26:17;8.57;;;2.38;;
59512;SDS011;45330;51.634;5.562;2022-09-09T11:29:03;12.65;;;2.63;;
59512;SDS011;45330;51.634;5.562;2022-09-09T11:31:58;8.07;;;2.55;;
59512;SDS011;45330;51.634;5.562;2022-09-09T11:37:29;9.35;;;2.97;;
59512;SDS011;45330;51.634;5.562;2022-09-09T11:40:16;9.63;;;2.60;;
59512;SDS011;45330;51.634;5.562;2022-09-09T11:42:45;11.27;;;2.85;;
59512;SDS011;45330;51.634;5.562;2022-09-09T11:45:22;10.57;;;2.30;;
59512;SDS011;45330;51.634;5.562;2022-09-09T11:47:54;10.73;;;2.75;;
59512;SDS011;45330;51.634;5.562;2022-09-09T11:52:47;6.82;;;2.47;;
59512;SDS011;45330;51.634;5.562;2022-09-09T11:55:29;9.00;;;2.42;;
59512;SDS011;45330;51.634;5.562;2022-09-09T11:58:03;10.88;;;2.60;;
59512;SDS011;45330;51.634;5.562;2022-09-09T12:00:49;10.80;;;2.78;;
59512;SDS011;45330;51.634;5.562;2022-09-09T12:05:59;10.02;;;2.50;;
59512;SDS011;45330;51.634;5.562;2022-09-09T12:08:33;9.00;;;2.53;;
59512;SDS011;45330;51.634;5.562;2022-09-09T12:11:01;6.60;;;2.40;;
59512;SDS011;45330;51.634;5.562;2022-09-09T12:13:28;9.57;;;2.47;;
59512;SDS011;45330;51.634;5.562;2022-09-09T12:15:56;11.85;;;2.53;;
59512;SDS011;45330;51.634;5.562;2022-09-09T12:18:24;10.68;;;2.47;;
59512;SDS011;45330;51.634;5.562;2022-09-09T12:23:58;10.13;;;2.60;;
59512;SDS011;45330;51.634;5.562;2022-09-09T12:26:37;8.98;;;2.80;;
59512;SDS011;45330;51.634;5.562;2022-09-09T12:29:26;8.38;;;3.15;;
59512;SDS011;45330;51.634;5.562;2022-09-09T12:32:15;10.02;;;2.50;;
59512;SDS011;45330;51.634;5.562;2022-09-09T12:34:44;10.55;;;2.40;;
59512;SDS011;45330;51.634;5.562;2022-09-09T12:42:45;8.60;;;2.53;;
59512;SDS011;45330;51.634;5.562;2022-09-09T12:48:03;8.13;;;2.40;;
59512;SDS011;45330;51.634;5.562;2022-09-09T12:50:54;11.00;;;2.30;;
59512;SDS011;45330;51.634;5.562;2022-09-09T12:53:24;10.80;;;2.50;;
59512;SDS011;45330;51.634;5.562;2022-09-09T12:56:18;11.18;;;2.30;;
59512;SDS011;45330;51.634;5.562;2022-09-09T12:58:47;11.80;;;2.38;;
59512;SDS011;45330;51.634;5.562;2022-09-09T13:01:22;8.23;;;2.13;;
59512;SDS011;45330;51.634;5.562;2022-09-09T13:03:48;8.02;;;2.20;;
59512;SDS011;45330;51.634;5.562;2022-09-09T13:06:17;9.65;;;2.28;;
59512;SDS011;45330;51.634;5.562;2022-09-09T13:08:48;12.45;;;2.80;;
59512;SDS011;45330;51.634;5.562;2022-09-09T13:11:23;13.30;;;2.60;;
59512;SDS011;45330;51.634;5.562;2022-09-09T13:16:22;12.57;;;2.70;;
59512;SDS011;45330;51.634;5.562;2022-09-09T13:18:50;11.65;;;2.58;;
59512;SDS011;45330;51.634;5.562;2022-09-09T13:21:16;13.77;;;3.28;;
59512;SDS011;45330;51.634;5.562;2022-09-09T13:23:42;11.25;;;3.38;;
59512;SDS011;45330;51.634;5.562;2022-09-09T13:26:26;15.88;;;3.65;;
59512;SDS011;45330;51.634;5.562;2022-09-09T13:28:53;9.15;;;2.97;;
59512;SDS011;45330;51.634;5.562;2022-09-09T13:31:20;10.27;;;3.65;;
59512;SDS011;45330;51.634;5.562;2022-09-09T13:33:46;14.38;;;3.65;;
59512;SDS011;45330;51.634;5.562;2022-09-09T13:36:12;14.60;;;3.70;;
59512;SDS011;45330;51.634;5.562;2022-09-09T13:41:20;14.77;;;4.10;;
59512;SDS011;45330;51.634;5.562;2022-09-09T13:43:48;16.17;;;3.78;;
59512;SDS011;45330;51.634;5.562;2022-09-09T13:46:35;11.45;;;3.20;;
59512;SDS011;45330;51.634;5.562;2022-09-09T13:51:38;11.50;;;3.00;;
59512;SDS011;45330;51.634;5.562;2022-09-09T13:54:05;13.50;;;3.05;;
59512;SDS011;45330;51.634;5.562;2022-09-09T13:56:35;12.52;;;3.08;;
59512;SDS011;45330;51.634;5.562;2022-09-09T13:59:02;13.77;;;3.50;;
59512;SDS011;45330;51.634;5.562;2022-09-09T14:01:29;13.77;;;2.75;;
59512;SDS011;45330;51.634;5.562;2022-09-09T14:03:55;7.18;;;2.03;;
59512;SDS011;45330;51.634;5.562;2022-09-09T14:06:20;8.43;;;2.45;;
59512;SDS011;45330;51.634;5.562;2022-09-09T14:08:47;10.23;;;2.53;;
59512;SDS011;45330;51.634;5.562;2022-09-09T14:11:13;12.27;;;2.35;;
59512;SDS011;45330;51.634;5.562;2022-09-09T14:13:39;12.30;;;2.63;;
59512;SDS011;45330;51.634;5.562;2022-09-09T14:16:05;9.23;;;2.50;;
59512;SDS011;45330;51.634;5.562;2022-09-09T14:18:30;9.07;;;2.28;;
59512;SDS011;45330;51.634;5.562;2022-09-09T14:20:56;7.28;;;2.33;;
59512;SDS011;45330;51.634;5.562;2022-09-09T14:23:23;8.00;;;2.17;;
59512;SDS011;45330;51.634;5.562;2022-09-09T14:25:49;7.03;;;2.15;;
59512;SDS011;45330;51.634;5.562;2022-09-09T14:28:15;8.05;;;2.30;;
59512;SDS011;45330;51.634;5.562;2022-09-09T14:30:42;8.32;;;2.35;;
59512;SDS011;45330;51.634;5.562;2022-09-09T14:33:09;8.38;;;2.35;;
59512;SDS011;45330;51.634;5.562;2022-09-09T14:35:38;7.55;;;1.98;;
59512;SDS011;45330;51.634;5.562;2022-09-09T14:38:06;10.50;;;2.50;;
59512;SDS011;45330;51.634;5.562;2022-09-09T14:40:31;6.50;;;2.03;;
59512;SDS011;45330;51.634;5.562;2022-09-09T14:42:59;8.73;;;2.42;;
59512;SDS011;45330;51.634;5.562;2022-09-09T14:45:25;9.25;;;2.30;;
59512;SDS011;45330;51.634;5.562;2022-09-09T14:47:51;9.80;;;2.60;;
59512;SDS011;45330;51.634;5.562;2022-09-09T14:50:20;8.88;;;2.40;;
59512;SDS011;45330;51.634;5.562;2022-09-09T14:52:47;10.75;;;2.28;;
59512;SDS011;45330;51.634;5.562;2022-09-09T14:55:14;7.13;;;2.35;;
59512;SDS011;45330;51.634;5.562;2022-09-09T14:57:40;9.93;;;2.45;;
59512;SDS011;45330;51.634;5.562;2022-09-09T15:00:06;5.53;;;2.00;;
59512;SDS011;45330;51.634;5.562;2022-09-09T15:02:33;9.35;;;2.30;;
59512;SDS011;45330;51.634;5.562;2022-09-09T15:04:59;12.52;;;2.85;;
59512;SDS011;45330;51.634;5.562;2022-09-09T15:07:25;9.90;;;2.65;;
59512;SDS011;45330;51.634;5.562;2022-09-09T15:09:51;7.93;;;2.22;;
59512;SDS011;45330;51.634;5.562;2022-09-09T15:12:17;10.27;;;3.00;;
59512;SDS011;45330;51.634;5.562;2022-09-09T15:14:44;9.32;;;2.70;;
59512;SDS011;45330;51.634;5.562;2022-09-09T15:17:10;8.73;;;2.33;;
59512;SDS011;45330;51.634;5.562;2022-09-09T15:19:36;7.70;;;2.60;;
59512;SDS011;45330;51.634;5.562;2022-09-09T15:22:02;7.00;;;2.22;;
59512;SDS011;45330;51.634;5.562;2022-09-09T15:24:28;14.75;;;2.53;;
59512;SDS011;45330;51.634;5.562;2022-09-09T15:26:53;13.82;;;2.70;;
59512;SDS011;45330;51.634;5.562;2022-09-09T15:29:19;8.80;;;2.67;;
59512;SDS011;45330;51.634;5.562;2022-09-09T15:31:44;11.65;;;3.22;;
59512;SDS011;45330;51.634;5.562;2022-09-09T15:34:10;12.18;;;3.00;;
59512;SDS011;45330;51.634;5.562;2022-09-09T15:39:06;16.58;;;3.17;;
59512;SDS011;45330;51.634;5.562;2022-09-09T15:41:34;6.68;;;2.20;;
59512;SDS011;45330;51.634;5.562;2022-09-09T15:44:00;4.50;;;1.80;;
59512;SDS011;45330;51.634;5.562;2022-09-09T15:46:30;7.68;;;1.75;;
59512;SDS011;45330;51.634;5.562;2022-09-09T15:49:07;5.20;;;2.20;;
59512;SDS011;45330;51.634;5.562;2022-09-09T15:51:35;6.57;;;2.10;;
59512;SDS011;45330;51.634;5.562;2022-09-09T15:54:02;6.22;;;2.40;;
59512;SDS011;45330;51.634;5.562;2022-09-09T15:56:28;6.57;;;2.55;;
59512;SDS011;45330;51.634;5.562;2022-09-09T15:59:00;7.82;;;2.72;;
59512;SDS011;45330;51.634;5.562;2022-09-09T16:01:28;5.82;;;2.50;;
59512;SDS011;45330;51.634;5.562;2022-09-09T16:03:55;7.35;;;2.40;;
59512;SDS011;45330;51.634;5.562;2022-09-09T16:06:22;9.07;;;2.83;;
59512;SDS011;45330;51.634;5.562;2022-09-09T16:08:49;10.68;;;3.60;;
59512;SDS011;45330;51.634;5.562;2022-09-09T16:11:26;5.78;;;3.03;;
59512;SDS011;45330;51.634;5.562;2022-09-09T16:13:54;10.27;;;2.65;;
59512;SDS011;45330;51.634;5.562;2022-09-09T16:16:22;11.77;;;2.95;;
59512;SDS011;45330;51.634;5.562;2022-09-09T16:19:07;5.85;;;2.30;;
59512;SDS011;45330;51.634;5.562;2022-09-09T16:21:35;7.88;;;2.35;;
59512;SDS011;45330;51.634;5.562;2022-09-09T16:24:04;6.20;;;2.25;;
59512;SDS011;45330;51.634;5.562;2022-09-09T16:26:31;7.80;;;2.70;;
59512;SDS011;45330;51.634;5.562;2022-09-09T16:29:00;9.20;;;2.58;;
59512;SDS011;45330;51.634;5.562;2022-09-09T16:31:27;11.27;;;2.63;;
59512;SDS011;45330;51.634;5.562;2022-09-09T16:33:54;7.10;;;2.55;;
59512;SDS011;45330;51.634;5.562;2022-09-09T16:36:20;9.75;;;2.72;;
59512;SDS011;45330;51.634;5.562;2022-09-09T16:41:22;7.28;;;3.15;;
59512;SDS011;45330;51.634;5.562;2022-09-09T16:43:52;10.93;;;3.00;;
59512;SDS011;45330;51.634;5.562;2022-09-09T16:46:18;7.30;;;2.95;;
59512;SDS011;45330;51.634;5.562;2022-09-09T16:48:45;6.03;;;2.72;;
59512;SDS011;45330;51.634;5.562;2022-09-09T16:51:15;8.07;;;2.90;;
59512;SDS011;45330;51.634;5.562;2022-09-09T16:53:52;7.90;;;3.30;;
59512;SDS011;45330;51.634;5.562;2022-09-09T16:56:22;9.63;;;3.00;;
59512;SDS011;45330;51.634;5.562;2022-09-09T16:58:54;8.63;;;3.65;;
59512;SDS011;45330;51.634;5.562;2022-09-09T17:03:53;10.43;;;3.60;;
59512;SDS011;45330;51.634;5.562;2022-09-09T17:06:19;12.65;;;4.15;;
59512;SDS011;45330;51.634;5.562;2022-09-09T17:08:44;13.05;;;4.60;;
59512;SDS011;45330;51.634;5.562;2022-09-09T17:11:16;11.40;;;4.65;;
59512;SDS011;45330;51.634;5.562;2022-09-09T17:13:44;13.02;;;4.72;;
59512;SDS011;45330;51.634;5.562;2022-09-09T17:16:13;13.82;;;5.00;;
59512;SDS011;45330;51.634;5.562;2022-09-09T17:18:39;13.23;;;5.03;;
59512;SDS011;45330;51.634;5.562;2022-09-09T17:21:06;12.50;;;5.40;;
59512;SDS011;45330;51.634;5.562;2022-09-09T17:23:38;11.35;;;5.15;;
59512;SDS011;45330;51.634;5.562;2022-09-09T17:26:07;15.98;;;6.00;;